sensor_id;sensor_type;location;lat;lon;timestamp;temperature;humidity
9393;DHT22;4736;52.508;13.422;2023-11-21T00:00:24;7.90;85.00
9393;DHT22;4736;52.508;13.422;2023-11-21T00:03:29;7.80;85.00
9393;DHT22;4736;52.508;13.422;2023-11-21T00:06:32;7.80;84.70
9393;DHT22;4736;52.508;13.422;2023-11-21T00:09:36;7.60;84.80
9393;DHT22;4736;52.508;13.422;2023-11-21T00:12:39;7.50;84.70
9393;DHT22;4736;52.508;13.422;2023-11-21T00:15:43;7.50;84.60
9393;DHT22;4736;52.508;13.422;2023-11-21T00:18:48;7.40;84.60
9393;DHT22;4736;52.508;13.422;2023-11-21T00:21:52;7.40;84.70
9393;DHT22;4736;52.508;13.422;2023-11-21T00:24:56;7.40;84.50
9393;DHT22;4736;52.508;13.422;2023-11-21T00:27:59;7.30;84.40
9393;DHT22;4736;52.508;13.422;2023-11-21T00:31:03;7.20;84.30
9393;DHT22;4736;52.508;13.422;2023-11-21T00:34:08;7.20;84.40
9393;DHT22;4736;52.508;13.422;2023-11-21T00:37:11;7.20;84.50
9393;DHT22;4736;52.508;13.422;2023-11-21T00:40:15;7.00;84.40
9393;DHT22;4736;52.508;13.422;2023-11-21T00:43:21;7.00;84.20
9393;DHT22;4736;52.508;13.422;2023-11-21T00:46:24;7.00;84.20
9393;DHT22;4736;52.508;13.422;2023-11-21T00:49:30;7.00;84.20
9393;DHT22;4736;52.508;13.422;2023-11-21T00:52:34;6.90;84.20
9393;DHT22;4736;52.508;13.422;2023-11-21T00:55:38;6.90;84.20
9393;DHT22;4736;52.508;13.422;2023-11-21T00:58:42;6.90;83.60
9393;DHT22;4736;52.508;13.422;2023-11-21T01:01:45;6.80;83.50
9393;DHT22;4736;52.508;13.422;2023-11-21T01:04:50;6.70;83.70
9393;DHT22;4736;52.508;13.422;2023-11-21T01:07:53;6.70;83.90
9393;DHT22;4736;52.508;13.422;2023-11-21T01:10:56;6.60;83.90
9393;DHT22;4736;52.508;13.422;2023-11-21T01:13:59;6.60;84.00
9393;DHT22;4736;52.508;13.422;2023-11-21T01:17:03;6.60;84.10
9393;DHT22;4736;52.508;13.422;2023-11-21T01:20:09;6.60;84.20
9393;DHT22;4736;52.508;13.422;2023-11-21T01:23:15;6.60;84.20
9393;DHT22;4736;52.508;13.422;2023-11-21T01:26:18;6.50;84.00
9393;DHT22;4736;52.508;13.422;2023-11-21T01:29:22;6.50;84.00
9393;DHT22;4736;52.508;13.422;2023-11-21T01:32:32;6.50;84.00
9393;DHT22;4736;52.508;13.422;2023-11-21T01:35:39;6.40;84.00
9393;DHT22;4736;52.508;13.422;2023-11-21T01:38:42;6.40;84.10
9393;DHT22;4736;52.508;13.422;2023-11-21T01:41:45;6.40;84.00
9393;DHT22;4736;52.508;13.422;2023-11-21T01:44:48;6.30;84.10
9393;DHT22;4736;52.508;13.422;2023-11-21T01:47:52;6.30;84.10
9393;DHT22;4736;52.508;13.422;2023-11-21T01:51:00;6.20;84.20
9393;DHT22;4736;52.508;13.422;2023-11-21T01:54:04;6.20;84.00
9393;DHT22;4736;52.508;13.422;2023-11-21T01:57:19;6.20;83.90
9393;DHT22;4736;52.508;13.422;2023-11-21T02:00:22;6.20;83.90
9393;DHT22;4736;52.508;13.422;2023-11-21T02:03:26;6.10;83.50
9393;DHT22;4736;52.508;13.422;2023-11-21T02:06:30;6.10;83.40
9393;DHT22;4736;52.508;13.422;2023-11-21T02:09:34;6.10;83.60
9393;DHT22;4736;52.508;13.422;2023-11-21T02:12:40;6.10;83.40
9393;DHT22;4736;52.508;13.422;2023-11-21T02:15:44;6.10;83.20
9393;DHT22;4736;52.508;13.422;2023-11-21T02:18:47;6.10;83.00
9393;DHT22;4736;52.508;13.422;2023-11-21T02:21:53;6.00;83.20
9393;DHT22;4736;52.508;13.422;2023-11-21T02:24:58;6.00;83.00
9393;DHT22;4736;52.508;13.422;2023-11-21T02:28:02;6.00;82.90
9393;DHT22;4736;52.508;13.422;2023-11-21T02:31:05;5.90;82.70
9393;DHT22;4736;52.508;13.422;2023-11-21T02:34:09;5.90;83.00
9393;DHT22;4736;52.508;13.422;2023-11-21T02:37:16;5.90;82.80
9393;DHT22;4736;52.508;13.422;2023-11-21T02:40:20;5.90;82.90
9393;DHT22;4736;52.508;13.422;2023-11-21T02:43:26;5.80;82.90
9393;DHT22;4736;52.508;13.422;2023-11-21T02:46:29;5.90;83.00
9393;DHT22;4736;52.508;13.422;2023-11-21T02:49:33;5.80;83.10
9393;DHT22;4736;52.508;13.422;2023-11-21T02:52:38;5.80;83.00
9393;DHT22;4736;52.508;13.422;2023-11-21T02:55:43;5.80;83.00
9393;DHT22;4736;52.508;13.422;2023-11-21T02:58:46;5.80;83.10
9393;DHT22;4736;52.508;13.422;2023-11-21T03:01:49;5.80;83.00
9393;DHT22;4736;52.508;13.422;2023-11-21T03:04:52;5.80;82.90
9393;DHT22;4736;52.508;13.422;2023-11-21T03:07:56;5.70;83.00
9393;DHT22;4736;52.508;13.422;2023-11-21T03:11:00;5.80;82.90
9393;DHT22;4736;52.508;13.422;2023-11-21T03:14:04;5.70;82.80
9393;DHT22;4736;52.508;13.422;2023-11-21T03:17:08;5.70;83.00
9393;DHT22;4736;52.508;13.422;2023-11-21T03:20:11;5.80;82.60
9393;DHT22;4736;52.508;13.422;2023-11-21T03:23:17;5.70;82.60
9393;DHT22;4736;52.508;13.422;2023-11-21T03:26:22;5.70;82.70
9393;DHT22;4736;52.508;13.422;2023-11-21T03:29:25;5.70;82.60
9393;DHT22;4736;52.508;13.422;2023-11-21T03:32:28;5.70;82.50
9393;DHT22;4736;52.508;13.422;2023-11-21T03:35:34;5.60;82.80
9393;DHT22;4736;52.508;13.422;2023-11-21T03:38:38;5.60;82.60
9393;DHT22;4736;52.508;13.422;2023-11-21T03:41:42;5.70;82.40
9393;DHT22;4736;52.508;13.422;2023-11-21T03:44:46;5.70;82.20
9393;DHT22;4736;52.508;13.422;2023-11-21T03:47:50;5.60;81.90
9393;DHT22;4736;52.508;13.422;2023-11-21T03:50:53;5.50;82.10
9393;DHT22;4736;52.508;13.422;2023-11-21T03:53:56;5.50;82.40
9393;DHT22;4736;52.508;13.422;2023-11-21T03:57:01;5.50;82.50
9393;DHT22;4736;52.508;13.422;2023-11-21T04:00:05;5.50;82.20
9393;DHT22;4736;52.508;13.422;2023-11-21T04:03:10;5.50;81.60
9393;DHT22;4736;52.508;13.422;2023-11-21T04:06:14;5.50;82.00
9393;DHT22;4736;52.508;13.422;2023-11-21T04:09:19;5.50;81.30
9393;DHT22;4736;52.508;13.422;2023-11-21T04:12:23;5.40;81.20
9393;DHT22;4736;52.508;13.422;2023-11-21T04:15:26;5.40;81.20
9393;DHT22;4736;52.508;13.422;2023-11-21T04:18:29;5.30;80.80
9393;DHT22;4736;52.508;13.422;2023-11-21T04:21:33;5.40;80.40
9393;DHT22;4736;52.508;13.422;2023-11-21T04:24:36;5.30;80.00
9393;DHT22;4736;52.508;13.422;2023-11-21T04:27:41;5.30;79.80
9393;DHT22;4736;52.508;13.422;2023-11-21T04:30:45;5.30;80.00
9393;DHT22;4736;52.508;13.422;2023-11-21T04:33:49;5.30;79.80
9393;DHT22;4736;52.508;13.422;2023-11-21T04:36:51;5.20;79.70
9393;DHT22;4736;52.508;13.422;2023-11-21T04:39:55;5.20;80.00
9393;DHT22;4736;52.508;13.422;2023-11-21T04:42:59;5.20;79.80
9393;DHT22;4736;52.508;13.422;2023-11-21T04:46:03;5.20;79.80
9393;DHT22;4736;52.508;13.422;2023-11-21T04:49:06;5.10;79.80
9393;DHT22;4736;52.508;13.422;2023-11-21T04:52:10;5.20;79.80
9393;DHT22;4736;52.508;13.422;2023-11-21T04:55:14;5.20;79.60
9393;DHT22;4736;52.508;13.422;2023-11-21T04:58:18;5.10;79.70
9393;DHT22;4736;52.508;13.422;2023-11-21T05:01:22;5.10;80.00
9393;DHT22;4736;52.508;13.422;2023-11-21T05:04:25;5.10;79.70
9393;DHT22;4736;52.508;13.422;2023-11-21T05:07:29;5.10;79.50
9393;DHT22;4736;52.508;13.422;2023-11-21T05:10:33;5.10;79.40
9393;DHT22;4736;52.508;13.422;2023-11-21T05:13:41;5.10;79.20
9393;DHT22;4736;52.508;13.422;2023-11-21T05:16:45;5.10;79.10
9393;DHT22;4736;52.508;13.422;2023-11-21T05:19:49;5.10;79.00
9393;DHT22;4736;52.508;13.422;2023-11-21T05:22:53;5.10;79.00
9393;DHT22;4736;52.508;13.422;2023-11-21T05:25:56;5.10;79.30
9393;DHT22;4736;52.508;13.422;2023-11-21T05:29:00;5.00;79.10
9393;DHT22;4736;52.508;13.422;2023-11-21T05:32:05;5.00;79.00
9393;DHT22;4736;52.508;13.422;2023-11-21T05:35:08;5.10;78.90
9393;DHT22;4736;52.508;13.422;2023-11-21T05:38:15;5.10;78.80
9393;DHT22;4736;52.508;13.422;2023-11-21T05:41:18;5.10;78.70
9393;DHT22;4736;52.508;13.422;2023-11-21T05:44:26;5.00;79.10
9393;DHT22;4736;52.508;13.422;2023-11-21T05:47:29;5.00;79.20
9393;DHT22;4736;52.508;13.422;2023-11-21T05:50:34;5.00;78.90
9393;DHT22;4736;52.508;13.422;2023-11-21T05:53:39;5.00;79.30
9393;DHT22;4736;52.508;13.422;2023-11-21T05:56:42;5.00;79.10
9393;DHT22;4736;52.508;13.422;2023-11-21T05:59:47;5.00;79.20
9393;DHT22;4736;52.508;13.422;2023-11-21T06:02:51;5.00;79.50
9393;DHT22;4736;52.508;13.422;2023-11-21T06:05:56;5.00;79.30
9393;DHT22;4736;52.508;13.422;2023-11-21T06:09:00;5.00;79.20
9393;DHT22;4736;52.508;13.422;2023-11-21T06:12:04;4.90;79.40
9393;DHT22;4736;52.508;13.422;2023-11-21T06:15:10;4.90;79.20
9393;DHT22;4736;52.508;13.422;2023-11-21T06:18:16;4.90;79.10
9393;DHT22;4736;52.508;13.422;2023-11-21T06:21:21;4.90;78.90
9393;DHT22;4736;52.508;13.422;2023-11-21T06:24:24;4.80;78.90
9393;DHT22;4736;52.508;13.422;2023-11-21T06:27:27;4.80;78.60
9393;DHT22;4736;52.508;13.422;2023-11-21T06:30:32;4.80;78.30
9393;DHT22;4736;52.508;13.422;2023-11-21T06:33:35;4.70;78.40
9393;DHT22;4736;52.508;13.422;2023-11-21T06:36:39;4.80;78.10
9393;DHT22;4736;52.508;13.422;2023-11-21T06:39:42;4.80;78.10
9393;DHT22;4736;52.508;13.422;2023-11-21T06:42:45;4.80;78.30
9393;DHT22;4736;52.508;13.422;2023-11-21T06:45:50;4.70;78.20
9393;DHT22;4736;52.508;13.422;2023-11-21T06:48:53;4.70;78.30
9393;DHT22;4736;52.508;13.422;2023-11-21T06:51:57;4.80;78.20
9393;DHT22;4736;52.508;13.422;2023-11-21T06:55:01;4.80;78.00
9393;DHT22;4736;52.508;13.422;2023-11-21T06:58:05;4.70;78.00
9393;DHT22;4736;52.508;13.422;2023-11-21T07:01:11;4.80;77.70
9393;DHT22;4736;52.508;13.422;2023-11-21T07:04:14;4.80;77.80
9393;DHT22;4736;52.508;13.422;2023-11-21T07:07:18;4.70;78.20
9393;DHT22;4736;52.508;13.422;2023-11-21T07:10:22;4.70;77.80
9393;DHT22;4736;52.508;13.422;2023-11-21T07:13:25;4.70;78.20
9393;DHT22;4736;52.508;13.422;2023-11-21T07:16:30;4.80;77.60
9393;DHT22;4736;52.508;13.422;2023-11-21T07:19:33;4.70;77.10
9393;DHT22;4736;52.508;13.422;2023-11-21T07:22:37;4.70;77.30
9393;DHT22;4736;52.508;13.422;2023-11-21T07:25:40;4.70;77.50
9393;DHT22;4736;52.508;13.422;2023-11-21T07:28:45;4.70;77.60
9393;DHT22;4736;52.508;13.422;2023-11-21T07:31:50;4.90;77.40
9393;DHT22;4736;52.508;13.422;2023-11-21T07:34:53;4.70;77.10
9393;DHT22;4736;52.508;13.422;2023-11-21T07:37:59;4.70;76.80
9393;DHT22;4736;52.508;13.422;2023-11-21T07:41:02;4.70;77.00
9393;DHT22;4736;52.508;13.422;2023-11-21T07:44:09;4.70;77.00
9393;DHT22;4736;52.508;13.422;2023-11-21T07:47:14;4.70;76.90
9393;DHT22;4736;52.508;13.422;2023-11-21T07:50:17;4.70;77.10
9393;DHT22;4736;52.508;13.422;2023-11-21T07:53:21;4.80;77.00
9393;DHT22;4736;52.508;13.422;2023-11-21T07:56:24;4.70;77.10
9393;DHT22;4736;52.508;13.422;2023-11-21T07:59:42;4.80;77.00
9393;DHT22;4736;52.508;13.422;2023-11-21T08:02:46;4.80;76.60
9393;DHT22;4736;52.508;13.422;2023-11-21T08:05:49;4.70;76.80
9393;DHT22;4736;52.508;13.422;2023-11-21T08:08:53;4.70;76.70
9393;DHT22;4736;52.508;13.422;2023-11-21T08:11:56;4.70;77.00
9393;DHT22;4736;52.508;13.422;2023-11-21T08:14:59;4.70;76.80
9393;DHT22;4736;52.508;13.422;2023-11-21T08:18:05;4.70;76.90
9393;DHT22;4736;52.508;13.422;2023-11-21T08:21:11;4.70;76.50
9393;DHT22;4736;52.508;13.422;2023-11-21T08:24:15;4.70;76.60
9393;DHT22;4736;52.508;13.422;2023-11-21T08:27:18;4.70;76.50
9393;DHT22;4736;52.508;13.422;2023-11-21T08:30:21;4.70;76.30
9393;DHT22;4736;52.508;13.422;2023-11-21T08:33:27;4.70;76.10
9393;DHT22;4736;52.508;13.422;2023-11-21T08:36:30;4.70;75.80
9393;DHT22;4736;52.508;13.422;2023-11-21T08:39:34;4.70;75.90
9393;DHT22;4736;52.508;13.422;2023-11-21T08:42:39;4.70;75.90
9393;DHT22;4736;52.508;13.422;2023-11-21T08:45:42;4.70;75.90
9393;DHT22;4736;52.508;13.422;2023-11-21T08:48:47;4.70;76.20
9393;DHT22;4736;52.508;13.422;2023-11-21T08:51:51;4.70;75.90
9393;DHT22;4736;52.508;13.422;2023-11-21T08:54:54;4.70;75.50
9393;DHT22;4736;52.508;13.422;2023-11-21T08:57:58;4.70;75.50
9393;DHT22;4736;52.508;13.422;2023-11-21T09:01:03;4.70;75.70
9393;DHT22;4736;52.508;13.422;2023-11-21T09:04:09;4.70;75.60
9393;DHT22;4736;52.508;13.422;2023-11-21T09:07:12;4.70;75.50
9393;DHT22;4736;52.508;13.422;2023-11-21T09:10:15;4.70;75.50
9393;DHT22;4736;52.508;13.422;2023-11-21T09:13:18;4.70;75.50
9393;DHT22;4736;52.508;13.422;2023-11-21T09:16:24;4.70;75.50
9393;DHT22;4736;52.508;13.422;2023-11-21T09:19:29;4.70;75.70
9393;DHT22;4736;52.508;13.422;2023-11-21T09:22:32;4.70;75.60
9393;DHT22;4736;52.508;13.422;2023-11-21T09:25:35;4.70;75.50
9393;DHT22;4736;52.508;13.422;2023-11-21T09:28:39;4.70;75.70
9393;DHT22;4736;52.508;13.422;2023-11-21T09:31:44;4.70;75.70
9393;DHT22;4736;52.508;13.422;2023-11-21T09:34:49;4.60;75.80
9393;DHT22;4736;52.508;13.422;2023-11-21T09:37:53;4.50;75.90
9393;DHT22;4736;52.508;13.422;2023-11-21T09:40:57;4.50;76.20
9393;DHT22;4736;52.508;13.422;2023-11-21T09:44:03;4.50;76.70
9393;DHT22;4736;52.508;13.422;2023-11-21T09:47:09;4.50;77.10
9393;DHT22;4736;52.508;13.422;2023-11-21T09:50:17;4.60;77.30
9393;DHT22;4736;52.508;13.422;2023-11-21T09:53:21;4.70;77.00
9393;DHT22;4736;52.508;13.422;2023-11-21T09:56:26;4.70;77.30
9393;DHT22;4736;52.508;13.422;2023-11-21T09:59:32;4.90;77.10
9393;DHT22;4736;52.508;13.422;2023-11-21T10:02:35;4.90;76.30
9393;DHT22;4736;52.508;13.422;2023-11-21T10:05:42;4.90;75.70
9393;DHT22;4736;52.508;13.422;2023-11-21T10:08:48;4.90;75.20
9393;DHT22;4736;52.508;13.422;2023-11-21T10:11:58;4.90;75.30
9393;DHT22;4736;52.508;13.422;2023-11-21T10:15:03;4.90;75.20
9393;DHT22;4736;52.508;13.422;2023-11-21T10:18:12;4.80;74.70
9393;DHT22;4736;52.508;13.422;2023-11-21T10:21:18;4.70;74.40
9393;DHT22;4736;52.508;13.422;2023-11-21T10:24:21;4.70;74.50
9393;DHT22;4736;52.508;13.422;2023-11-21T10:27:27;4.50;75.10
9393;DHT22;4736;52.508;13.422;2023-11-21T10:30:32;4.50;75.20
9393;DHT22;4736;52.508;13.422;2023-11-21T10:33:38;4.50;75.50
9393;DHT22;4736;52.508;13.422;2023-11-21T10:36:43;4.50;75.80
9393;DHT22;4736;52.508;13.422;2023-11-21T10:39:46;4.60;75.80
9393;DHT22;4736;52.508;13.422;2023-11-21T10:42:49;4.50;75.90
9393;DHT22;4736;52.508;13.422;2023-11-21T10:45:57;4.50;76.10
9393;DHT22;4736;52.508;13.422;2023-11-21T10:49:02;4.60;76.00
9393;DHT22;4736;52.508;13.422;2023-11-21T10:52:06;4.60;75.80
9393;DHT22;4736;52.508;13.422;2023-11-21T10:55:17;4.50;75.60
9393;DHT22;4736;52.508;13.422;2023-11-21T10:58:21;4.50;75.90
9393;DHT22;4736;52.508;13.422;2023-11-21T11:01:26;4.50;76.20
9393;DHT22;4736;52.508;13.422;2023-11-21T11:04:32;4.50;76.60
9393;DHT22;4736;52.508;13.422;2023-11-21T11:07:37;4.50;76.80
9393;DHT22;4736;52.508;13.422;2023-11-21T11:10:42;4.50;77.10
9393;DHT22;4736;52.508;13.422;2023-11-21T11:13:48;4.50;77.20
9393;DHT22;4736;52.508;13.422;2023-11-21T11:16:53;4.50;77.50
9393;DHT22;4736;52.508;13.422;2023-11-21T11:19:57;4.50;76.70
9393;DHT22;4736;52.508;13.422;2023-11-21T11:23:14;4.50;76.50
9393;DHT22;4736;52.508;13.422;2023-11-21T11:26:31;4.50;76.60
9393;DHT22;4736;52.508;13.422;2023-11-21T11:29:46;4.50;76.50
9393;DHT22;4736;52.508;13.422;2023-11-21T11:33:01;4.50;76.20
9393;DHT22;4736;52.508;13.422;2023-11-21T11:36:15;4.50;76.30
9393;DHT22;4736;52.508;13.422;2023-11-21T11:39:29;4.50;76.40
9393;DHT22;4736;52.508;13.422;2023-11-21T11:42:33;4.50;76.30
9393;DHT22;4736;52.508;13.422;2023-11-21T11:45:36;4.50;76.20
9393;DHT22;4736;52.508;13.422;2023-11-21T11:48:43;4.50;76.30
9393;DHT22;4736;52.508;13.422;2023-11-21T11:51:47;4.50;76.10
9393;DHT22;4736;52.508;13.422;2023-11-21T11:54:53;4.50;76.70
9393;DHT22;4736;52.508;13.422;2023-11-21T11:57:56;4.40;77.10
9393;DHT22;4736;52.508;13.422;2023-11-21T12:01:06;4.40;77.00
9393;DHT22;4736;52.508;13.422;2023-11-21T12:04:27;4.40;77.20
9393;DHT22;4736;52.508;13.422;2023-11-21T12:07:44;4.40;77.20
9393;DHT22;4736;52.508;13.422;2023-11-21T12:10:51;4.40;77.20
9393;DHT22;4736;52.508;13.422;2023-11-21T12:13:56;4.40;77.60
9393;DHT22;4736;52.508;13.422;2023-11-21T12:17:00;4.30;77.70
9393;DHT22;4736;52.508;13.422;2023-11-21T12:20:07;4.40;77.50
9393;DHT22;4736;52.508;13.422;2023-11-21T12:23:16;4.40;76.70
9393;DHT22;4736;52.508;13.422;2023-11-21T12:26:23;4.30;76.80
9393;DHT22;4736;52.508;13.422;2023-11-21T12:29:26;4.40;76.90
9393;DHT22;4736;52.508;13.422;2023-11-21T12:32:31;4.40;76.90
9393;DHT22;4736;52.508;13.422;2023-11-21T12:35:35;4.40;76.70
9393;DHT22;4736;52.508;13.422;2023-11-21T12:38:39;4.40;77.10
9393;DHT22;4736;52.508;13.422;2023-11-21T12:41:45;4.30;77.50
9393;DHT22;4736;52.508;13.422;2023-11-21T12:44:48;4.20;77.90
9393;DHT22;4736;52.508;13.422;2023-11-21T12:47:53;4.20;78.00
9393;DHT22;4736;52.508;13.422;2023-11-21T12:50:58;4.20;78.10
9393;DHT22;4736;52.508;13.422;2023-11-21T12:54:02;4.20;77.90
9393;DHT22;4736;52.508;13.422;2023-11-21T12:57:14;4.30;77.60
9393;DHT22;4736;52.508;13.422;2023-11-21T13:00:20;4.30;77.40
9393;DHT22;4736;52.508;13.422;2023-11-21T13:03:35;4.30;77.40
9393;DHT22;4736;52.508;13.422;2023-11-21T13:06:38;4.30;77.50
9393;DHT22;4736;52.508;13.422;2023-11-21T13:09:44;4.30;77.90
9393;DHT22;4736;52.508;13.422;2023-11-21T13:12:51;4.30;78.10
9393;DHT22;4736;52.508;13.422;2023-11-21T13:15:55;4.30;77.90
9393;DHT22;4736;52.508;13.422;2023-11-21T13:18:59;4.20;78.00
9393;DHT22;4736;52.508;13.422;2023-11-21T13:22:02;4.10;78.00
9393;DHT22;4736;52.508;13.422;2023-11-21T13:25:06;4.10;78.20
9393;DHT22;4736;52.508;13.422;2023-11-21T13:28:12;4.10;78.10
9393;DHT22;4736;52.508;13.422;2023-11-21T13:31:17;4.10;78.00
9393;DHT22;4736;52.508;13.422;2023-11-21T13:34:28;4.10;78.00
9393;DHT22;4736;52.508;13.422;2023-11-21T13:37:35;4.00;77.40
9393;DHT22;4736;52.508;13.422;2023-11-21T13:40:39;4.00;76.80
9393;DHT22;4736;52.508;13.422;2023-11-21T13:43:46;3.90;76.80
9393;DHT22;4736;52.508;13.422;2023-11-21T13:46:57;3.90;76.80
9393;DHT22;4736;52.508;13.422;2023-11-21T13:50:01;3.80;77.20
9393;DHT22;4736;52.508;13.422;2023-11-21T13:53:04;3.70;77.20
9393;DHT22;4736;52.508;13.422;2023-11-21T13:56:19;3.70;77.40
9393;DHT22;4736;52.508;13.422;2023-11-21T13:59:28;3.60;77.20
9393;DHT22;4736;52.508;13.422;2023-11-21T14:02:32;3.60;77.20
9393;DHT22;4736;52.508;13.422;2023-11-21T14:05:41;3.50;77.50
9393;DHT22;4736;52.508;13.422;2023-11-21T14:08:46;3.50;77.70
9393;DHT22;4736;52.508;13.422;2023-11-21T14:11:50;3.50;77.50
9393;DHT22;4736;52.508;13.422;2023-11-21T14:14:56;3.50;77.20
9393;DHT22;4736;52.508;13.422;2023-11-21T14:18:00;3.40;77.60
9393;DHT22;4736;52.508;13.422;2023-11-21T14:21:07;3.30;77.10
9393;DHT22;4736;52.508;13.422;2023-11-21T14:24:12;3.30;77.50
9393;DHT22;4736;52.508;13.422;2023-11-21T14:27:15;3.30;77.80
9393;DHT22;4736;52.508;13.422;2023-11-21T14:30:20;3.30;77.70
9393;DHT22;4736;52.508;13.422;2023-11-21T14:33:24;3.10;77.80
9393;DHT22;4736;52.508;13.422;2023-11-21T14:36:28;3.10;77.40
9393;DHT22;4736;52.508;13.422;2023-11-21T14:39:31;3.10;77.70
9393;DHT22;4736;52.508;13.422;2023-11-21T14:42:40;3.10;77.80
9393;DHT22;4736;52.508;13.422;2023-11-21T14:45:45;3.00;78.10
9393;DHT22;4736;52.508;13.422;2023-11-21T14:48:48;3.00;78.30
9393;DHT22;4736;52.508;13.422;2023-11-21T14:52:00;2.90;78.30
9393;DHT22;4736;52.508;13.422;2023-11-21T14:55:05;2.90;78.30
9393;DHT22;4736;52.508;13.422;2023-11-21T14:58:28;2.80;78.40
9393;DHT22;4736;52.508;13.422;2023-11-21T15:01:33;2.80;78.40
9393;DHT22;4736;52.508;13.422;2023-11-21T15:04:50;2.80;78.70
9393;DHT22;4736;52.508;13.422;2023-11-21T15:07:57;2.80;78.40
9393;DHT22;4736;52.508;13.422;2023-11-21T15:11:13;2.70;78.20
9393;DHT22;4736;52.508;13.422;2023-11-21T15:14:18;2.70;78.00
9393;DHT22;4736;52.508;13.422;2023-11-21T15:17:28;2.70;77.80
9393;DHT22;4736;52.508;13.422;2023-11-21T15:20:33;2.70;78.00
9393;DHT22;4736;52.508;13.422;2023-11-21T15:23:37;2.70;78.20
9393;DHT22;4736;52.508;13.422;2023-11-21T15:26:40;2.70;77.70
9393;DHT22;4736;52.508;13.422;2023-11-21T15:29:46;2.70;77.60
9393;DHT22;4736;52.508;13.422;2023-11-21T15:32:53;2.50;77.40
9393;DHT22;4736;52.508;13.422;2023-11-21T15:35:56;2.50;77.60
9393;DHT22;4736;52.508;13.422;2023-11-21T15:39:00;2.50;76.80
9393;DHT22;4736;52.508;13.422;2023-11-21T15:42:04;2.50;76.40
9393;DHT22;4736;52.508;13.422;2023-11-21T15:45:09;2.50;76.30
9393;DHT22;4736;52.508;13.422;2023-11-21T15:48:13;2.50;76.30
9393;DHT22;4736;52.508;13.422;2023-11-21T15:51:18;2.50;76.10
9393;DHT22;4736;52.508;13.422;2023-11-21T15:54:22;2.50;76.10
9393;DHT22;4736;52.508;13.422;2023-11-21T15:57:26;2.50;76.30
9393;DHT22;4736;52.508;13.422;2023-11-21T16:00:29;2.50;76.10
9393;DHT22;4736;52.508;13.422;2023-11-21T16:03:34;2.50;76.10
9393;DHT22;4736;52.508;13.422;2023-11-21T16:06:37;2.50;75.60
9393;DHT22;4736;52.508;13.422;2023-11-21T16:09:41;2.40;75.20
9393;DHT22;4736;52.508;13.422;2023-11-21T16:12:45;2.40;75.70
9393;DHT22;4736;52.508;13.422;2023-11-21T16:15:48;2.40;75.50
9393;DHT22;4736;52.508;13.422;2023-11-21T16:18:54;2.40;75.10
9393;DHT22;4736;52.508;13.422;2023-11-21T16:21:58;2.40;75.20
9393;DHT22;4736;52.508;13.422;2023-11-21T16:25:02;2.30;75.30
9393;DHT22;4736;52.508;13.422;2023-11-21T16:28:07;2.30;75.60
9393;DHT22;4736;52.508;13.422;2023-11-21T16:31:10;2.30;75.40
9393;DHT22;4736;52.508;13.422;2023-11-21T16:34:19;2.30;75.00
9393;DHT22;4736;52.508;13.422;2023-11-21T16:37:23;2.30;74.80
9393;DHT22;4736;52.508;13.422;2023-11-21T16:40:26;2.40;75.00
9393;DHT22;4736;52.508;13.422;2023-11-21T16:43:30;2.30;75.20
9393;DHT22;4736;52.508;13.422;2023-11-21T16:46:33;2.40;74.20
9393;DHT22;4736;52.508;13.422;2023-11-21T16:49:38;2.40;73.30
9393;DHT22;4736;52.508;13.422;2023-11-21T16:52:44;2.50;72.90
9393;DHT22;4736;52.508;13.422;2023-11-21T16:55:47;2.40;72.60
9393;DHT22;4736;52.508;13.422;2023-11-21T16:58:51;2.40;72.40
9393;DHT22;4736;52.508;13.422;2023-11-21T17:01:54;2.30;72.70
9393;DHT22;4736;52.508;13.422;2023-11-21T17:04:59;2.30;72.90
9393;DHT22;4736;52.508;13.422;2023-11-21T17:08:02;2.30;72.70
9393;DHT22;4736;52.508;13.422;2023-11-21T17:11:06;2.30;72.80
9393;DHT22;4736;52.508;13.422;2023-11-21T17:14:15;2.30;73.00
9393;DHT22;4736;52.508;13.422;2023-11-21T17:17:19;2.20;73.40
9393;DHT22;4736;52.508;13.422;2023-11-21T17:20:23;2.30;73.60
9393;DHT22;4736;52.508;13.422;2023-11-21T17:23:28;2.30;73.10
9393;DHT22;4736;52.508;13.422;2023-11-21T17:26:31;2.30;73.30
9393;DHT22;4736;52.508;13.422;2023-11-21T17:29:34;2.40;73.40
9393;DHT22;4736;52.508;13.422;2023-11-21T17:32:37;2.30;73.90
9393;DHT22;4736;52.508;13.422;2023-11-21T17:35:42;2.30;74.20
9393;DHT22;4736;52.508;13.422;2023-11-21T17:38:46;2.30;73.80
9393;DHT22;4736;52.508;13.422;2023-11-21T17:41:49;2.30;73.90
9393;DHT22;4736;52.508;13.422;2023-11-21T17:44:52;2.30;74.10
9393;DHT22;4736;52.508;13.422;2023-11-21T17:47:55;2.30;74.10
9393;DHT22;4736;52.508;13.422;2023-11-21T17:51:00;2.30;74.10
9393;DHT22;4736;52.508;13.422;2023-11-21T17:54:03;2.30;73.60
9393;DHT22;4736;52.508;13.422;2023-11-21T17:57:07;2.30;73.10
9393;DHT22;4736;52.508;13.422;2023-11-21T18:00:13;2.20;73.20
9393;DHT22;4736;52.508;13.422;2023-11-21T18:03:16;2.20;73.20
9393;DHT22;4736;52.508;13.422;2023-11-21T18:06:21;2.20;72.70
9393;DHT22;4736;52.508;13.422;2023-11-21T18:09:24;2.20;72.40
9393;DHT22;4736;52.508;13.422;2023-11-21T18:12:29;2.20;72.30
9393;DHT22;4736;52.508;13.422;2023-11-21T18:15:33;2.00;72.60
9393;DHT22;4736;52.508;13.422;2023-11-21T18:18:36;2.10;72.70
9393;DHT22;4736;52.508;13.422;2023-11-21T18:21:41;2.00;72.70
9393;DHT22;4736;52.508;13.422;2023-11-21T18:24:46;1.90;73.00
9393;DHT22;4736;52.508;13.422;2023-11-21T18:27:49;2.00;72.70
9393;DHT22;4736;52.508;13.422;2023-11-21T18:30:53;2.00;72.40
9393;DHT22;4736;52.508;13.422;2023-11-21T18:33:57;2.00;72.60
9393;DHT22;4736;52.508;13.422;2023-11-21T18:37:02;1.90;72.60
9393;DHT22;4736;52.508;13.422;2023-11-21T18:40:07;1.90;72.60
9393;DHT22;4736;52.508;13.422;2023-11-21T18:43:11;1.90;72.50
9393;DHT22;4736;52.508;13.422;2023-11-21T18:46:15;1.90;72.10
9393;DHT22;4736;52.508;13.422;2023-11-21T18:49:18;1.90;72.50
9393;DHT22;4736;52.508;13.422;2023-11-21T18:52:23;1.80;72.50
9393;DHT22;4736;52.508;13.422;2023-11-21T18:55:29;1.80;72.80
9393;DHT22;4736;52.508;13.422;2023-11-21T18:58:34;1.80;72.20
9393;DHT22;4736;52.508;13.422;2023-11-21T19:01:37;1.70;72.60
9393;DHT22;4736;52.508;13.422;2023-11-21T19:04:42;1.70;72.60
9393;DHT22;4736;52.508;13.422;2023-11-21T19:07:46;1.70;72.10
9393;DHT22;4736;52.508;13.422;2023-11-21T19:10:51;1.70;72.20
9393;DHT22;4736;52.508;13.422;2023-11-21T19:13:54;1.70;72.10
9393;DHT22;4736;52.508;13.422;2023-11-21T19:16:57;1.70;72.20
9393;DHT22;4736;52.508;13.422;2023-11-21T19:20:01;1.70;71.80
9393;DHT22;4736;52.508;13.422;2023-11-21T19:23:06;1.70;71.70
9393;DHT22;4736;52.508;13.422;2023-11-21T19:26:09;1.70;71.40
9393;DHT22;4736;52.508;13.422;2023-11-21T19:29:13;1.70;71.40
9393;DHT22;4736;52.508;13.422;2023-11-21T19:32:18;1.70;71.50
9393;DHT22;4736;52.508;13.422;2023-11-21T19:35:21;1.60;71.70
9393;DHT22;4736;52.508;13.422;2023-11-21T19:38:25;1.60;71.80
9393;DHT22;4736;52.508;13.422;2023-11-21T19:41:29;1.60;71.80
9393;DHT22;4736;52.508;13.422;2023-11-21T19:44:32;1.60;71.80
9393;DHT22;4736;52.508;13.422;2023-11-21T19:47:38;1.60;71.90
9393;DHT22;4736;52.508;13.422;2023-11-21T19:50:41;1.60;71.50
9393;DHT22;4736;52.508;13.422;2023-11-21T19:53:46;1.60;71.40
9393;DHT22;4736;52.508;13.422;2023-11-21T19:56:53;1.50;71.60
9393;DHT22;4736;52.508;13.422;2023-11-21T19:59:56;1.50;71.70
9393;DHT22;4736;52.508;13.422;2023-11-21T20:03:00;1.50;71.80
9393;DHT22;4736;52.508;13.422;2023-11-21T20:06:04;1.40;72.20